createdAt,value
2022-08-22T00:00:54.475Z,89.83
2022-08-22T00:02:46.732Z,76.90
2022-08-22T00:03:30.338Z,90.47
2022-08-22T00:06:12.733Z,90.68
2022-08-22T00:08:48.476Z,90.96
2022-08-22T00:11:19.054Z,90.89
2022-08-22T00:14:01.227Z,90.91
2022-08-22T00:16:33.193Z,92.05
2022-08-22T00:19:07.037Z,91.78
2022-08-22T00:21:38.125Z,93.06
2022-08-22T00:24:11.267Z,94.06
2022-08-22T00:26:45.252Z,94.44
2022-08-22T00:29:15.086Z,94.31
2022-08-22T00:31:46.754Z,94.44
2022-08-22T00:34:19.374Z,94.01
2022-08-22T00:36:49.473Z,94.70
2022-08-22T00:39:17.995Z,94.59
2022-08-22T00:41:52.557Z,94.29
2022-08-22T00:44:41.962Z,94.39
2022-08-22T00:47:19.811Z,93.79
2022-08-22T00:49:58.003Z,94.07
2022-08-22T00:52:40.271Z,94.77
2022-08-22T00:55:33.896Z,94.45
2022-08-22T00:58:11.532Z,94.20
2022-08-22T01:00:43.255Z,94.62
2022-08-22T01:03:16.602Z,94.64
2022-08-22T01:05:56.059Z,94.20
2022-08-22T01:08:32.027Z,94.77
2022-08-22T01:11:06.446Z,95.00
2022-08-22T01:13:43.324Z,95.54
2022-08-22T01:16:19.947Z,95.88
2022-08-22T01:18:55.390Z,95.87
2022-08-22T01:21:43.662Z,96.24
2022-08-22T01:24:25.970Z,95.87
2022-08-22T01:27:06.272Z,96.28
2022-08-22T01:29:48.460Z,96.68
2022-08-22T01:32:53.925Z,96.99
2022-08-22T01:35:48.634Z,97.46
2022-08-22T01:38:26.910Z,97.66
2022-08-22T01:41:17.152Z,97.23
2022-08-22T01:43:59.655Z,98.04
2022-08-22T01:46:33.768Z,97.73
2022-08-22T01:49:05.958Z,97.83
2022-08-22T01:51:39.870Z,97.61
2022-08-22T01:54:10.402Z,97.77
2022-08-22T01:56:41.512Z,98.04
2022-08-22T01:59:10.946Z,97.79
2022-08-22T02:01:48.355Z,98.05
2022-08-22T02:04:20.000Z,97.76
2022-08-22T02:06:52.629Z,97.63
2022-08-22T02:09:30.635Z,97.79
2022-08-22T02:12:01.196Z,97.92
2022-08-22T02:14:41.714Z,97.62
2022-08-22T02:17:14.142Z,97.68
2022-08-22T02:19:45.625Z,97.30
2022-08-22T02:22:20.804Z,97.84
2022-08-22T02:24:52.091Z,97.98
2022-08-22T02:27:31.329Z,97.92
2022-08-22T02:30:02.459Z,98.26
2022-08-22T02:32:37.129Z,98.51
2022-08-22T02:35:09.204Z,98.75
2022-08-22T02:37:38.738Z,98.95
2022-08-22T02:40:14.755Z,98.84
2022-08-22T02:42:44.846Z,99.00
2022-08-22T02:45:25.745Z,99.21
2022-08-22T02:47:57.901Z,99.01
2022-08-22T02:50:29.932Z,99.15
2022-08-22T02:52:59.486Z,99.04
2022-08-22T02:55:39.842Z,99.40
2022-08-22T02:58:09.706Z,99.52
2022-08-22T03:00:45.537Z,99.68
2022-08-22T03:03:16.848Z,99.31
2022-08-22T03:05:49.170Z,99.16
2022-08-22T03:08:21.454Z,99.64
2022-08-22T03:11:00.383Z,99.26
2022-08-22T03:13:34.596Z,99.34
2022-08-22T03:16:07.791Z,98.91
2022-08-22T03:18:44.225Z,98.77
2022-08-22T03:21:16.404Z,98.49
2022-08-22T03:23:46.444Z,98.57
2022-08-22T03:26:18.354Z,99.02
2022-08-22T03:28:59.313Z,99.31
2022-08-22T03:31:29.024Z,99.56
2022-08-22T03:34:16.814Z,100.00
2022-08-22T03:36:47.718Z,100.00
2022-08-22T03:39:18.781Z,100.00
2022-08-22T03:42:01.045Z,100.00
2022-08-22T03:44:47.020Z,100.00
2022-08-22T03:47:32.504Z,100.00
2022-08-22T03:50:18.689Z,100.00
2022-08-22T03:53:10.297Z,100.00
2022-08-22T03:56:08.574Z,100.00
2022-08-22T03:58:41.135Z,100.00
2022-08-22T04:01:19.246Z,100.00
2022-08-22T04:04:08.623Z,100.00
2022-08-22T04:06:56.509Z,100.00
2022-08-22T04:09:52.438Z,100.00
2022-08-22T04:12:42.418Z,100.00
2022-08-22T04:15:25.783Z,100.00
2022-08-22T04:18:01.984Z,100.00
2022-08-22T04:20:45.375Z,100.00
2022-08-22T04:23:28.085Z,100.00
2022-08-22T04:25:59.536Z,100.00
2022-08-22T04:28:35.730Z,100.00
2022-08-22T04:31:05.953Z,100.00
2022-08-22T04:33:36.082Z,100.00
2022-08-22T04:36:06.060Z,100.00
2022-08-22T04:38:37.778Z,100.00
2022-08-22T04:41:08.656Z,100.00
2022-08-22T04:43:38.572Z,100.00
2022-08-22T04:46:10.627Z,100.00
2022-08-22T04:48:40.600Z,100.00
2022-08-22T04:51:11.879Z,100.00
2022-08-22T04:53:53.246Z,100.00
2022-08-22T04:56:25.967Z,100.00
2022-08-22T04:58:55.785Z,100.00
2022-08-22T05:01:25.788Z,100.00
2022-08-22T05:03:55.880Z,100.00
2022-08-22T05:06:24.654Z,100.00
2022-08-22T05:08:54.580Z,100.00
2022-08-22T05:11:24.442Z,100.00
2022-08-22T05:13:53.571Z,100.00
2022-08-22T05:16:22.857Z,100.00
2022-08-22T05:18:52.134Z,100.00
2022-08-22T05:21:23.481Z,100.00
2022-08-22T05:23:59.989Z,100.00
2022-08-22T05:26:28.445Z,100.00
2022-08-22T05:28:58.448Z,100.00
2022-08-22T05:31:28.405Z,100.00
2022-08-22T05:33:57.681Z,100.00
2022-08-22T05:36:26.179Z,100.00
2022-08-22T05:38:57.058Z,100.00
2022-08-22T05:41:27.750Z,100.00
2022-08-22T05:43:55.639Z,100.00
2022-08-22T05:46:27.143Z,100.00
2022-08-22T05:48:57.502Z,100.00
2022-08-22T05:51:27.101Z,100.00
2022-08-22T05:54:00.993Z,100.00
2022-08-22T05:56:35.059Z,100.00
2022-08-22T05:59:08.162Z,100.00
2022-08-22T06:01:39.407Z,100.00
2022-08-22T06:04:09.069Z,100.00
2022-08-22T06:06:42.403Z,100.00
2022-08-22T06:09:14.066Z,100.00
2022-08-22T06:11:51.576Z,100.00
2022-08-22T06:14:24.976Z,100.00
2022-08-22T06:16:56.957Z,100.00
2022-08-22T06:19:24.891Z,100.00
2022-08-22T06:21:54.500Z,100.00
2022-08-22T06:24:24.720Z,100.00
2022-08-22T06:26:54.903Z,100.00
2022-08-22T06:29:29.525Z,100.00
2022-08-22T06:31:58.045Z,100.00
2022-08-22T06:34:28.213Z,100.00
2022-08-22T06:36:57.286Z,100.00
2022-08-22T06:39:26.158Z,100.00
2022-08-22T06:41:57.677Z,100.00
2022-08-22T06:44:27.161Z,100.00
2022-08-22T06:46:58.296Z,100.00
2022-08-22T06:49:26.839Z,100.00
2022-08-22T06:51:57.524Z,100.00
2022-08-22T06:54:31.438Z,100.00
2022-08-22T06:57:05.051Z,100.00
2022-08-22T06:59:35.303Z,100.00
2022-08-22T07:02:06.953Z,100.00
2022-08-22T07:04:34.549Z,100.00
2022-08-22T07:07:02.541Z,99.44
2022-08-22T07:09:31.857Z,98.85
2022-08-22T07:12:01.685Z,98.94
2022-08-22T07:14:33.080Z,99.21
2022-08-22T07:17:02.127Z,99.02
2022-08-22T07:19:34.121Z,99.01
2022-08-22T07:22:11.041Z,98.71
2022-08-22T07:24:42.329Z,98.93
2022-08-22T07:27:15.991Z,98.02
2022-08-22T07:29:49.004Z,98.09
2022-08-22T07:32:19.658Z,97.63
2022-08-22T07:34:53.848Z,97.61
2022-08-22T07:37:26.939Z,96.25
2022-08-22T07:39:56.113Z,95.35
2022-08-22T07:42:29.759Z,93.53
2022-08-22T07:45:03.970Z,93.31
2022-08-22T07:47:39.246Z,92.72
2022-08-22T07:50:08.394Z,91.07
2022-08-22T07:52:41.149Z,90.46
2022-08-22T07:55:14.000Z,89.78
2022-08-22T07:57:44.324Z,89.40
2022-08-22T08:00:15.992Z,87.61
2022-08-22T08:02:46.090Z,88.57
2022-08-22T08:05:15.425Z,87.41
2022-08-22T08:07:45.084Z,87.87
2022-08-22T08:10:14.224Z,86.38
2022-08-22T08:12:57.974Z,86.46
2022-08-22T08:15:33.080Z,86.31
2022-08-22T08:18:03.828Z,83.17
2022-08-22T08:20:31.727Z,81.93
2022-08-22T08:22:59.938Z,81.02
2022-08-22T08:25:28.891Z,80.10
2022-08-22T08:28:15.795Z,77.56
2022-08-22T08:30:48.138Z,78.14
2022-08-22T08:33:25.285Z,77.09
2022-08-22T08:36:02.923Z,76.19
2022-08-22T08:38:32.340Z,74.72
2022-08-22T08:41:10.724Z,73.41
2022-08-22T08:43:47.861Z,72.75
2022-08-22T08:46:31.126Z,72.38
2022-08-22T08:49:07.791Z,72.53
2022-08-22T08:51:56.888Z,72.27
2022-08-22T08:54:36.832Z,69.91
2022-08-22T08:57:10.748Z,71.35
2022-08-22T08:59:44.191Z,69.69
2022-08-22T09:02:34.988Z,68.65
2022-08-22T09:05:24.564Z,65.61
2022-08-22T09:08:21.286Z,66.06
2022-08-22T09:11:02.848Z,68.34
2022-08-22T09:13:42.445Z,66.65
2022-08-22T09:16:17.458Z,65.16
2022-08-22T09:18:58.986Z,61.21
2022-08-22T09:21:53.348Z,62.04
2022-08-22T09:24:35.639Z,61.70
2022-08-22T09:27:08.534Z,65.44
2022-08-22T09:32:36.041Z,65.62
2022-08-22T09:35:08.036Z,62.89
2022-08-22T09:37:41.287Z,62.36
2022-08-22T09:42:56.083Z,62.02
2022-08-22T09:45:41.036Z,61.58
2022-08-22T09:48:17.793Z,59.77
2022-08-22T09:50:54.525Z,58.62
2022-08-22T09:53:31.254Z,60.68
2022-08-22T09:56:15.264Z,61.59
2022-08-22T09:58:45.198Z,57.05
2022-08-22T10:01:17.319Z,58.95
2022-08-22T10:04:03.398Z,59.67
2022-08-22T10:06:42.270Z,57.98
2022-08-22T10:09:14.417Z,57.24
2022-08-22T10:11:49.522Z,59.39
2022-08-22T10:14:22.197Z,61.72
2022-08-22T10:16:58.068Z,60.03
2022-08-22T10:19:28.558Z,60.25
2022-08-22T10:22:15.191Z,58.36
2022-08-22T10:24:49.031Z,60.70
2022-08-22T10:27:20.655Z,54.09
2022-08-22T10:29:58.960Z,55.02
2022-08-22T10:32:31.725Z,53.79
2022-08-22T10:35:02.762Z,55.19
2022-08-22T10:37:37.547Z,56.97
2022-08-22T10:40:13.673Z,60.42
2022-08-22T10:42:45.613Z,62.29
2022-08-22T10:45:24.036Z,56.29
2022-08-22T10:48:31.669Z,58.26
2022-08-22T10:51:08.833Z,61.00
2022-08-22T10:53:52.987Z,55.52
2022-08-22T10:56:27.463Z,56.14
2022-08-22T10:59:04.141Z,56.89
2022-08-22T11:01:41.012Z,56.96
2022-08-22T11:04:12.902Z,59.26
2022-08-22T11:06:45.421Z,57.62
2022-08-22T11:09:24.787Z,56.29
2022-08-22T11:12:02.527Z,57.73
2022-08-22T11:14:44.998Z,50.75
2022-08-22T11:17:31.171Z,50.43
2022-08-22T11:20:15.746Z,51.81
2022-08-22T11:22:55.635Z,48.55
2022-08-22T11:25:38.437Z,46.63
2022-08-22T11:28:18.764Z,47.87
2022-08-22T11:30:54.686Z,46.31
2022-08-22T11:33:46.365Z,52.00
2022-08-22T11:36:26.324Z,49.50
2022-08-22T11:39:01.526Z,53.67
2022-08-22T11:41:32.352Z,55.53
2022-08-22T11:44:03.756Z,57.06
2022-08-22T11:46:32.432Z,55.19
2022-08-22T11:49:14.736Z,47.72
2022-08-22T11:51:58.339Z,48.98
2022-08-22T11:54:31.265Z,51.32
2022-08-22T11:57:08.345Z,46.74
2022-08-22T11:59:53.089Z,50.36
2022-08-22T12:02:25.676Z,44.57
2022-08-22T12:04:56.314Z,44.93
2022-08-22T12:07:27.696Z,44.40
2022-08-22T12:09:59.472Z,44.42
2022-08-22T12:12:33.230Z,42.45
2022-08-22T12:15:04.347Z,46.62
2022-08-22T12:18:01.484Z,45.03
2022-08-22T12:20:48.566Z,45.21
2022-08-22T12:23:49.443Z,42.76
2022-08-22T12:26:22.093Z,41.37
2022-08-22T12:28:58.730Z,39.23
2022-08-22T12:31:31.596Z,41.58
2022-08-22T12:34:06.501Z,39.48
2022-08-22T12:36:48.914Z,40.53
2022-08-22T12:39:30.526Z,43.62
2022-08-22T12:42:21.818Z,43.15
2022-08-22T12:44:56.205Z,44.28
2022-08-22T12:47:32.156Z,39.19
2022-08-22T12:50:13.123Z,39.41
2022-08-22T12:52:51.504Z,32.98
2022-08-22T12:55:24.886Z,37.54
2022-08-22T12:57:58.867Z,32.16
2022-08-22T13:00:30.605Z,37.39
2022-08-22T13:02:59.872Z,37.69
2022-08-22T13:05:30.129Z,41.37
2022-08-22T13:08:04.568Z,40.59
2022-08-22T13:10:39.084Z,40.31
2022-08-22T13:13:12.047Z,43.00
2022-08-22T13:15:44.947Z,39.72
2022-08-22T13:18:28.698Z,39.16
2022-08-22T13:21:01.959Z,35.61
2022-08-22T13:23:34.268Z,33.42
2022-08-22T13:26:10.086Z,34.11
2022-08-22T13:28:43.157Z,34.81
2022-08-22T13:31:16.171Z,34.08
2022-08-22T13:33:48.108Z,31.25
2022-08-22T13:36:19.852Z,32.78
2022-08-22T13:38:50.056Z,34.35
2022-08-22T13:41:22.540Z,31.90
2022-08-22T13:44:02.437Z,30.52
2022-08-22T13:46:31.171Z,31.61
2022-08-22T13:49:07.068Z,30.34
2022-08-22T13:51:41.074Z,26.92
2022-08-22T13:54:21.508Z,29.15
2022-08-22T13:56:56.146Z,26.26
2022-08-22T13:59:50.285Z,28.52
2022-08-22T14:02:24.953Z,27.81
2022-08-22T14:05:02.324Z,29.40
2022-08-22T14:07:36.383Z,26.20
2022-08-22T14:10:06.281Z,27.11
2022-08-22T14:12:51.108Z,29.23
2022-08-22T14:15:22.002Z,28.59
2022-08-22T14:17:52.036Z,28.73
2022-08-22T14:20:32.462Z,24.55
2022-08-22T14:23:05.272Z,27.10
2022-08-22T14:25:35.668Z,27.88
2022-08-22T14:28:09.050Z,29.03
2022-08-22T14:30:39.810Z,26.45
2022-08-22T14:33:13.757Z,26.04
2022-08-22T14:35:42.936Z,24.86
2022-08-22T14:38:17.853Z,24.96
2022-08-22T14:40:46.245Z,28.64
2022-08-22T14:43:22.477Z,27.79
2022-08-22T14:45:57.235Z,29.14
2022-08-22T14:48:33.145Z,29.57
2022-08-22T14:51:04.159Z,28.96
2022-08-22T14:53:34.708Z,30.66
2022-08-22T14:56:03.862Z,27.47
2022-08-22T14:58:34.039Z,27.86
2022-08-22T15:01:10.321Z,27.00
2022-08-22T15:03:38.845Z,29.95
2022-08-22T15:06:09.785Z,30.88
2022-08-22T15:08:48.270Z,31.88
2022-08-22T15:11:21.841Z,31.79
2022-08-22T15:13:54.439Z,35.04
2022-08-22T15:16:23.576Z,32.27
2022-08-22T15:18:51.739Z,33.23
2022-08-22T15:21:24.560Z,37.81
2022-08-22T15:23:55.535Z,36.26
2022-08-22T15:26:28.089Z,36.43
2022-08-22T15:29:04.328Z,33.57
2022-08-22T15:31:32.444Z,28.69
2022-08-22T15:34:07.025Z,31.29
2022-08-22T15:36:36.888Z,30.45
2022-08-22T15:39:23.132Z,35.78
2022-08-22T15:41:51.910Z,32.13
2022-08-22T15:44:32.463Z,34.20
2022-08-22T15:47:02.953Z,31.70
2022-08-22T15:49:32.422Z,31.43
2022-08-22T15:52:15.916Z,34.03
2022-08-22T15:55:06.517Z,31.98
2022-08-22T15:57:38.758Z,33.49
2022-08-22T16:00:10.652Z,34.55
2022-08-22T16:02:41.518Z,32.56
2022-08-22T16:05:23.878Z,32.09
2022-08-22T16:08:02.649Z,32.31
2022-08-22T16:10:32.130Z,32.85
2022-08-22T16:13:13.091Z,37.51
2022-08-22T16:15:56.850Z,32.60
2022-08-22T16:18:43.521Z,33.39
2022-08-22T16:21:12.014Z,32.67
2022-08-22T16:23:56.196Z,36.03
2022-08-22T16:26:24.414Z,38.41
2022-08-22T16:28:58.141Z,34.74
2022-08-22T16:31:28.478Z,34.25
2022-08-22T16:33:57.804Z,34.23
2022-08-22T16:36:40.447Z,35.15
2022-08-22T16:39:10.131Z,35.55
2022-08-22T16:41:40.245Z,37.41
2022-08-22T16:44:31.585Z,38.47
2022-08-22T16:47:10.291Z,40.20
2022-08-22T16:49:40.520Z,40.38
2022-08-22T16:52:26.586Z,40.15
2022-08-22T16:54:55.678Z,41.34
2022-08-22T16:57:24.617Z,41.42
2022-08-22T17:00:00.562Z,41.49
2022-08-22T17:02:39.225Z,43.01
2022-08-22T17:05:20.525Z,40.44
2022-08-22T17:07:54.958Z,41.45
2022-08-22T17:10:39.498Z,44.02
2022-08-22T17:13:14.665Z,44.43
2022-08-22T17:15:50.018Z,46.36
2022-08-22T17:18:28.188Z,42.72
2022-08-22T17:21:02.293Z,44.76
2022-08-22T17:23:34.779Z,46.35
2022-08-22T17:26:09.910Z,47.74
2022-08-22T17:28:41.254Z,46.82
2022-08-22T17:31:13.826Z,48.19
2022-08-22T17:34:05.490Z,48.94
2022-08-22T17:36:43.530Z,48.01
2022-08-22T17:39:17.815Z,47.46
2022-08-22T17:41:51.122Z,48.96
2022-08-22T17:44:22.451Z,50.32
2022-08-22T17:46:52.854Z,48.45
2022-08-22T17:49:22.995Z,49.90
2022-08-22T17:51:56.074Z,50.56
2022-08-22T17:54:29.664Z,49.48
2022-08-22T17:57:05.741Z,49.54
2022-08-22T17:59:37.208Z,51.37
2022-08-22T18:02:10.436Z,50.94
2022-08-22T18:04:45.544Z,52.17
2022-08-22T18:07:24.511Z,51.28
2022-08-22T18:09:54.632Z,52.78
2022-08-22T18:12:25.958Z,52.92
2022-08-22T18:14:56.390Z,53.11
2022-08-22T18:17:41.098Z,53.60
2022-08-22T18:20:12.165Z,54.57
2022-08-22T18:22:44.490Z,53.97
2022-08-22T18:25:27.727Z,54.79
2022-08-22T18:27:57.620Z,56.30
2022-08-22T18:30:27.697Z,56.51
2022-08-22T18:32:56.873Z,55.76
2022-08-22T18:35:28.829Z,56.55
2022-08-22T18:38:01.623Z,56.67
2022-08-22T18:40:44.354Z,57.27
2022-08-22T18:43:23.775Z,57.90
2022-08-22T18:45:58.194Z,58.75
2022-08-22T18:48:30.360Z,58.78
2022-08-22T18:51:16.290Z,59.49
2022-08-22T18:53:48.203Z,59.99
2022-08-22T18:56:21.429Z,59.57
2022-08-22T18:59:05.378Z,60.12
2022-08-22T19:01:44.449Z,60.93
2022-08-22T19:04:26.432Z,61.43
2022-08-22T19:07:05.847Z,61.32
2022-08-22T19:09:59.971Z,62.15
2022-08-22T19:12:37.243Z,62.68
2022-08-22T19:15:22.632Z,62.26
2022-08-22T19:18:03.658Z,62.39
2022-08-22T19:20:49.790Z,62.90
2022-08-22T19:23:35.938Z,62.81
2022-08-22T19:26:25.731Z,64.26
2022-08-22T19:28:53.825Z,63.85
2022-08-22T19:31:23.769Z,63.79
2022-08-22T19:34:11.251Z,63.81
2022-08-22T19:36:38.726Z,64.49
2022-08-22T19:39:09.011Z,64.27
2022-08-22T19:41:39.717Z,64.55
2022-08-22T19:44:09.835Z,64.53
2022-08-22T19:46:39.101Z,64.40
2022-08-22T19:49:07.696Z,64.81
2022-08-22T19:51:35.222Z,64.76
2022-08-22T19:54:16.762Z,65.24
2022-08-22T19:57:00.321Z,65.70
2022-08-22T19:59:32.567Z,66.68
2022-08-22T20:02:06.559Z,66.42
2022-08-22T20:04:39.691Z,66.29
2022-08-22T20:07:14.798Z,67.58
2022-08-22T20:09:46.500Z,67.69
2022-08-22T20:12:19.904Z,67.38
2022-08-22T20:14:48.349Z,67.63
2022-08-22T20:17:36.539Z,69.50
2022-08-22T20:20:34.502Z,69.64
2022-08-22T20:22:56.626Z,69.79
2022-08-22T20:25:43.187Z,70.19
2022-08-22T20:28:23.584Z,69.96
2022-08-22T20:30:51.431Z,70.51
2022-08-22T20:33:21.574Z,70.48
2022-08-22T20:35:53.148Z,70.93
2022-08-22T20:38:23.112Z,70.94
2022-08-22T20:40:56.632Z,71.01
2022-08-22T20:43:28.649Z,70.92
2022-08-22T20:46:02.120Z,71.88
2022-08-22T20:48:34.379Z,71.88
2022-08-22T20:51:03.919Z,72.25
2022-08-22T20:53:31.673Z,72.22
2022-08-22T20:55:59.521Z,71.91
2022-08-22T20:58:29.608Z,72.18
2022-08-22T21:00:59.897Z,71.90
2022-08-22T21:03:33.821Z,72.06
2022-08-22T21:06:10.353Z,72.12
2022-08-22T21:08:37.995Z,72.09
2022-08-22T21:11:24.371Z,72.67
2022-08-22T21:13:53.855Z,72.61
2022-08-22T21:16:22.529Z,72.42
2022-08-22T21:18:51.006Z,72.56
2022-08-22T21:21:20.707Z,72.33
2022-08-22T21:23:49.270Z,72.83
2022-08-22T21:26:23.357Z,72.42
2022-08-22T21:28:59.950Z,73.17
2022-08-22T21:31:29.550Z,73.40
2022-08-22T21:33:57.528Z,73.17
2022-08-22T21:36:27.234Z,73.49
2022-08-22T21:38:56.923Z,73.45
2022-08-22T21:41:25.604Z,73.63
2022-08-22T21:43:54.171Z,73.72
2022-08-22T21:46:27.292Z,73.92
2022-08-22T21:49:02.744Z,73.61
2022-08-22T21:51:39.297Z,73.79
2022-08-22T21:54:25.556Z,73.73
2022-08-22T21:56:54.170Z,74.19
2022-08-22T21:59:24.992Z,74.26
2022-08-22T22:01:55.552Z,74.25
2022-08-22T22:04:23.210Z,74.33
2022-08-22T22:06:50.684Z,74.13
2022-08-22T22:09:18.184Z,74.21
2022-08-22T22:11:45.673Z,74.47
2022-08-22T22:14:13.166Z,74.88
2022-08-22T22:16:40.620Z,75.07
2022-08-22T22:19:10.169Z,75.28
2022-08-22T22:21:38.537Z,75.54
2022-08-22T22:24:06.189Z,75.78
2022-08-22T22:26:33.677Z,75.88
2022-08-22T22:29:01.094Z,75.63
2022-08-22T22:31:28.603Z,75.87
2022-08-22T22:33:56.121Z,75.91
2022-08-22T22:36:27.612Z,75.47
2022-08-22T22:38:55.263Z,75.37
2022-08-22T22:41:25.346Z,76.40
2022-08-22T22:43:53.352Z,75.89
2022-08-22T22:46:21.266Z,75.89
2022-08-22T22:48:48.698Z,75.86
2022-08-22T22:51:16.465Z,75.80
2022-08-22T22:53:45.580Z,75.39
2022-08-22T22:56:14.146Z,75.54
2022-08-22T22:58:43.658Z,75.85
2022-08-22T23:01:13.211Z,76.22
2022-08-22T23:03:40.683Z,76.46
2022-08-22T23:06:11.024Z,75.88
2022-08-22T23:08:38.527Z,76.25
2022-08-22T23:11:11.330Z,76.49
2022-08-22T23:13:39.633Z,76.35
2022-08-22T23:16:10.498Z,76.70
2022-08-22T23:18:38.088Z,77.09
2022-08-22T23:21:12.972Z,76.59
2022-08-22T23:23:40.403Z,76.21
2022-08-22T23:26:08.124Z,77.23
2022-08-22T23:28:37.331Z,76.88
2022-08-22T23:31:12.490Z,76.70
2022-08-22T23:33:39.966Z,76.46
2022-08-22T23:36:11.545Z,76.61
2022-08-22T23:38:39.009Z,76.07
2022-08-22T23:41:09.791Z,76.60
2022-08-22T23:43:41.775Z,76.36
2022-08-22T23:46:09.201Z,76.53
2022-08-22T23:48:36.646Z,76.56
2022-08-22T23:51:04.285Z,76.62
2022-08-22T23:53:31.832Z,76.12
2022-08-22T23:56:09.091Z,76.42
2022-08-22T23:58:49.276Z,76.57
